Time;durP1;ratioP1;P1;durP2;ratioP2;P2;SDS_P1;SDS_P2;PMS_P1;PMS_P2;Temp;Humidity;BMP_temperature;BMP_pressure;BME280_temperature;BME280_humidity;BME280_pressure;Samples;Min_cycle;Max_cycle;Signal;HPM_P1;HPM_P2
2024/01/14 00:00:18;;;;;;;67.63;45.90;;;;;;;2.58;100.00;101497.34;5095195;28;20043;-67
2024/01/14 00:03:06;;;;;;;70.63;47.17;;;;;;;2.58;100.00;101507.28;5093263;28;20044;-68
2024/01/14 00:05:54;;;;;;;62.80;43.53;;;;;;;2.61;100.00;101496.13;5075865;28;20056;-67
2024/01/14 00:08:42;;;;;;;62.85;43.15;;;;;;;2.61;100.00;101496.13;5060199;28;20041;-67
2024/01/14 00:11:30;;;;;;;71.90;48.33;;;;;;;2.61;100.00;101504.19;5092202;28;20048;-66
2024/01/14 00:14:18;;;;;;;70.25;47.83;;;;;;;2.60;100.00;101497.13;5090415;28;20102;-66
2024/01/14 00:17:06;;;;;;;71.97;46.50;;;;;;;2.62;100.00;101492.38;5078802;28;20487;-67
2024/01/14 00:19:54;;;;;;;67.03;46.90;;;;;;;2.63;100.00;101483.31;5078888;28;20407;-68
2024/01/14 00:22:43;;;;;;;62.83;44.42;;;;;;;2.63;100.00;101494.06;5079778;28;20051;-66
2024/01/14 00:25:31;;;;;;;74.22;47.45;;;;;;;2.65;100.00;101487.44;5077765;28;20404;-66
2024/01/14 00:28:19;;;;;;;70.07;46.47;;;;;;;2.66;100.00;101469.44;5080006;28;20112;-67
2024/01/14 00:31:07;;;;;;;69.40;47.10;;;;;;;2.65;100.00;101481.25;5079414;28;20067;-67
2024/01/14 00:33:55;;;;;;;75.40;48.40;;;;;;;2.62;100.00;101470.84;5062525;28;20053;-66
2024/01/14 00:36:43;;;;;;;66.20;44.83;;;;;;;2.59;100.00;101466.72;5064082;28;20044;-67
2024/01/14 00:39:31;;;;;;;69.53;47.30;;;;;;;2.61;100.00;101463.84;5080164;28;20112;-66
2024/01/14 00:42:19;;;;;;;76.43;47.65;;;;;;;2.60;100.00;101467.53;5071431;28;20580;-67
2024/01/14 00:45:08;;;;;;;68.55;45.20;;;;;;;2.56;100.00;101467.94;5092098;28;20126;-67
2024/01/14 00:47:56;;;;;;;67.03;42.85;;;;;;;2.59;100.00;101463.19;5064888;28;20048;-66
2024/01/14 00:50:44;;;;;;;75.35;49.13;;;;;;;2.59;100.00;101465.88;5073081;28;20415;-66
2024/01/14 00:53:32;;;;;;;64.72;42.78;;;;;;;2.59;100.00;101460.50;5093879;28;20052;-66
2024/01/14 00:56:20;;;;;;;63.88;43.10;;;;;;;2.59;100.00;101460.50;5077070;28;20479;-66
2024/01/14 00:59:08;;;;;;;66.30;43.10;;;;;;;2.55;100.00;101457.41;5065750;28;20054;-66
2024/01/14 01:01:56;;;;;;;60.70;41.35;;;;;;;2.59;100.00;101449.75;5094040;28;20509;-67
2024/01/14 01:04:44;;;;;;;72.28;48.05;;;;;;;2.56;100.00;101457.19;5049639;28;20082;-66
2024/01/14 01:07:32;;;;;;;67.40;44.83;;;;;;;2.56;100.00;101437.53;5090731;28;20079;-66
2024/01/14 01:10:20;;;;;;;65.22;44.60;;;;;;;2.56;100.00;101441.03;5064111;28;20131;-66
2024/01/14 01:13:08;;;;;;;73.20;47.45;;;;;;;2.58;100.00;101440.03;5093945;28;20054;-67
2024/01/14 01:15:56;;;;;;;67.68;45.38;;;;;;;2.59;100.00;101422.84;5103500;28;20046;-67
2024/01/14 01:18:44;;;;;;;65.03;45.05;;;;;;;2.61;100.00;101431.56;5069928;28;20139;-66
2024/01/14 01:21:32;;;;;;;64.25;43.15;;;;;;;2.59;100.00;101428.22;5061054;28;20048;-66
2024/01/14 01:24:20;;;;;;;59.75;41.78;;;;;;;2.58;100.00;101427.41;5060316;28;20045;-67
2024/01/14 01:27:09;;;;;;;56.78;39.28;;;;;;;2.61;100.00;101423.47;5095164;28;20051;-67
2024/01/14 01:29:57;;;;;;;64.03;43.08;;;;;;;2.63;100.00;101407.97;5068665;28;20468;-65
2024/01/14 01:32:46;;;;;;;62.00;42.72;;;;;;;2.64;100.00;101420.38;5064476;28;20040;-67
2024/01/14 01:35:34;;;;;;;63.17;41.97;;;;;;;2.63;100.00;101408.78;5093013;28;20050;-66
2024/01/14 01:38:22;;;;;;;60.75;42.10;;;;;;;2.64;100.00;101407.75;5092786;28;20043;-66
2024/01/14 01:41:10;;;;;;;62.53;43.67;;;;;;;2.63;100.00;101402.59;5077971;28;20059;-66
2024/01/14 01:43:58;;;;;;;65.40;43.58;;;;;;;2.63;100.00;101399.91;5078061;28;20116;-65
2024/01/14 01:46:47;;;;;;;65.25;42.28;;;;;;;2.64;100.00;101396.16;5076578;28;20135;-66
2024/01/14 01:49:36;;;;;;;65.82;44.13;;;;;;;2.64;100.00;101388.09;5058889;28;20127;-65
2024/01/14 01:52:25;;;;;;;58.08;41.28;;;;;;;2.62;100.00;101395.53;5073158;28;20451;-66
2024/01/14 01:55:13;;;;;;;64.45;41.33;;;;;;;2.61;100.00;101399.28;5061549;28;20158;-67
2024/01/14 01:58:01;;;;;;;60.55;42.03;;;;;;;2.57;100.00;101401.50;5063571;28;20046;-67
2024/01/14 02:00:50;;;;;;;63.00;42.35;;;;;;;2.58;100.00;101395.13;5078545;28;20080;-67
2024/01/14 02:03:38;;;;;;;57.80;38.65;;;;;;;2.60;100.00;101392.22;5093210;28;20044;-67
2024/01/14 02:06:28;;;;;;;58.00;39.13;;;;;;;2.61;100.00;101383.94;5092853;28;20515;-66
2024/01/14 02:09:16;;;;;;;53.22;37.55;;;;;;;2.62;100.00;101388.31;5080345;28;20127;-66
2024/01/14 02:12:04;;;;;;;56.25;38.45;;;;;;;2.64;100.00;101388.91;5075489;28;20051;-66
2024/01/14 02:14:52;;;;;;;56.42;39.92;;;;;;;2.63;100.00;101381.06;5092711;28;20519;-66
2024/01/14 02:17:40;;;;;;;52.88;36.83;;;;;;;2.63;100.00;101383.75;5092128;28;20129;-66
2024/01/14 02:20:28;;;;;;;53.50;38.90;;;;;;;2.62;100.00;101374.00;5090715;28;20089;-69
2024/01/14 02:23:20;;;;;;;49.97;35.17;;;;;;;2.53;100.00;101376.88;5092195;28;20040;-66
2024/01/14 02:26:08;;;;;;;53.45;36.05;;;;;;;2.53;100.00;101376.06;5070128;28;20072;-68
2024/01/14 02:28:56;;;;;;;52.95;37.65;;;;;;;2.51;100.00;101378.94;5077003;28;20123;-65
2024/01/14 02:31:44;;;;;;;50.97;36.20;;;;;;;2.51;100.00;101376.25;5077498;28;20048;-66
2024/01/14 02:34:35;;;;;;;52.33;37.03;;;;;;;2.56;100.00;101368.41;5092614;28;20127;-67
2024/01/14 02:37:23;;;;;;;56.75;39.90;;;;;;;2.53;100.00;101359.94;5091677;28;20458;-65
2024/01/14 02:40:12;;;;;;;51.88;36.20;;;;;;;2.55;100.00;101364.06;5080070;28;20055;-67
2024/01/14 02:43:00;;;;;;;50.92;36.33;;;;;;;2.58;100.00;101356.63;5096832;28;20139;-66
2024/01/14 02:45:48;;;;;;;55.55;37.80;;;;;;;2.56;100.00;101354.97;5094683;28;20123;-66
2024/01/14 02:48:36;;;;;;;49.88;35.05;;;;;;;2.57;100.00;101350.41;5094324;28;20040;-66
2024/01/14 02:51:24;;;;;;;54.38;37.60;;;;;;;2.59;100.00;101344.84;5081498;28;20044;-66
2024/01/14 02:54:12;;;;;;;53.72;38.13;;;;;;;2.59;100.00;101340.28;5081995;28;20075;-65
2024/01/14 02:57:01;;;;;;;55.35;38.63;;;;;;;2.54;100.00;101338.19;5081188;28;20131;-66
2024/01/14 02:59:48;;;;;;;56.22;40.28;;;;;;;2.53;100.00;101330.34;5094344;28;20126;-66
2024/01/14 03:02:38;;;;;;;62.80;42.13;;;;;;;2.53;100.00;101330.34;5092630;28;20044;-66
2024/01/14 03:05:25;;;;;;;57.92;40.25;;;;;;;2.54;100.00;101330.13;5096256;28;20173;-67
2024/01/14 03:08:14;;;;;;;60.45;41.72;;;;;;;2.54;100.00;101329.31;5094125;28;20047;-69
2024/01/14 03:11:02;;;;;;;61.45;42.47;;;;;;;2.56;100.00;101332.63;5084110;28;20052;-66
2024/01/14 03:13:49;;;;;;;63.60;43.97;;;;;;;2.56;100.00;101333.44;5071971;28;20492;-66
2024/01/14 03:16:37;;;;;;;60.13;42.22;;;;;;;2.52;100.00;101320.59;5081708;28;20077;-66
2024/01/14 03:19:26;;;;;;;64.03;43.38;;;;;;;2.51;100.00;101327.03;5094433;28;20051;-66
2024/01/14 03:22:14;;;;;;;65.38;42.72;;;;;;;2.53;100.00;101328.47;5078917;28;20044;-65
2024/01/14 03:25:02;;;;;;;61.42;42.10;;;;;;;2.56;100.00;101321.88;5075288;28;20127;-65
2024/01/14 03:27:50;;;;;;;69.93;44.30;;;;;;;2.53;100.00;101323.09;5066079;28;20048;-66
2024/01/14 03:30:38;;;;;;;61.65;40.38;;;;;;;2.53;100.00;101328.47;5093114;28;20518;-67
2024/01/14 03:33:26;;;;;;;61.63;41.47;;;;;;;2.54;100.00;101321.22;5075401;28;20050;-66
2024/01/14 03:36:15;;;;;;;58.55;40.22;;;;;;;2.50;100.00;101312.75;5068005;28;20058;-65
2024/01/14 03:39:06;;;;;;;60.00;40.78;;;;;;;2.51;100.00;101319.78;5079709;28;20052;-65
2024/01/14 03:41:55;;;;;;;55.22;36.58;;;;;;;2.51;100.00;101314.41;5091529;28;20051;-65
2024/01/14 03:44:43;;;;;;;59.38;39.00;;;;;;;2.51;100.00;101314.41;5095635;28;20044;-65
2024/01/14 03:47:31;;;;;;;53.55;35.30;;;;;;;2.49;100.00;101305.69;5093389;28;20079;-66
2024/01/14 03:50:19;;;;;;;56.97;39.33;;;;;;;2.50;100.00;101307.38;5075051;28;20127;-66
2024/01/14 03:53:08;;;;;;;57.22;39.47;;;;;;;2.47;100.00;101291.63;5078338;28;20052;-67
2024/01/14 03:55:56;;;;;;;59.85;39.88;;;;;;;2.48;100.00;101293.28;5080015;28;20056;-66
2024/01/14 03:58:44;;;;;;;55.55;38.97;;;;;;;2.52;100.00;101285.63;5065388;28;20123;-67
2024/01/14 04:01:32;;;;;;;53.25;36.58;;;;;;;2.52;100.00;101286.44;5093529;28;20087;-67
2024/01/14 04:04:19;;;;;;;57.53;40.55;;;;;;;2.53;100.00;101281.94;5092238;28;20404;-66
2024/01/14 04:07:09;;;;;;;59.63;39.05;;;;;;;2.53;100.00;101273.84;5095165;28;20415;-66
2024/01/14 04:09:58;;;;;;;54.13;37.67;;;;;;;2.53;100.00;101282.75;5078872;28;20040;-65
2024/01/14 04:12:46;;;;;;;56.72;37.88;;;;;;;2.54;100.00;101281.69;5077957;28;20052;-66
2024/01/14 04:15:36;;;;;;;57.50;38.63;;;;;;;2.53;100.00;101285.44;5074807;28;20049;-66
2024/01/14 04:18:24;;;;;;;51.95;36.42;;;;;;;2.53;100.00;101277.38;5073233;28;20493;-65
2024/01/14 04:21:24;;;;;;;58.20;36.97;;;;;;;2.51;100.00;101270.53;5090996;28;20124;-67
2024/01/14 04:24:12;;;;;;;54.28;37.60;;;;;;;2.51;100.00;101275.91;5074071;28;20420;-66
2024/01/14 04:27:00;;;;;;;53.03;36.92;;;;;;;2.55;100.00;101275.31;5073844;28;20564;-66
2024/01/14 04:29:49;;;;;;;50.17;35.33;;;;;;;2.53;100.00;101266.63;5075243;28;20045;-67
2024/01/14 04:32:37;;;;;;;54.92;37.17;;;;;;;2.55;100.00;101269.09;5077413;28;20051;-70
2024/01/14 04:35:25;;;;;;;52.70;36.42;;;;;;;2.52;100.00;101267.63;5085352;28;20055;-66
2024/01/14 04:38:13;;;;;;;53.03;37.03;;;;;;;2.48;100.00;101268.25;5094710;28;20056;-67
2024/01/14 04:41:01;;;;;;;53.42;36.13;;;;;;;2.48;100.00;101266.41;5064730;28;20043;-65
2024/01/14 04:43:49;;;;;;;55.65;36.90;;;;;;;2.43;100.00;101262.63;5091066;28;20484;-67
2024/01/14 04:46:37;;;;;;;53.15;35.70;;;;;;;2.39;100.00;101251.47;5095251;28;20555;-66
2024/01/14 04:49:25;;;;;;;49.78;33.85;;;;;;;2.43;100.00;101249.19;5094327;28;20614;-67
2024/01/14 04:52:13;;;;;;;49.08;33.85;;;;;;;2.45;100.00;101256.03;5073588;28;20047;-67
2024/01/14 04:55:01;;;;;;;52.78;35.20;;;;;;;2.45;100.00;101249.81;5088579;28;20135;-67
2024/01/14 04:57:49;;;;;;;46.55;33.72;;;;;;;2.46;100.00;101238.88;5094644;28;20428;-68
2024/01/14 05:00:37;;;;;;;43.97;31.80;;;;;;;2.48;100.00;101234.13;5093198;28;20615;-67
2024/01/14 05:03:26;;;;;;;47.05;33.72;;;;;;;2.48;100.00;101234.13;5092576;28;20048;-67
2024/01/14 05:06:14;;;;;;;44.25;31.80;;;;;;;2.46;100.00;101236.19;5065369;28;20126;-67
2024/01/14 05:09:03;;;;;;;43.22;31.05;;;;;;;2.48;100.00;101244.06;5078032;28;20181;-70
2024/01/14 05:11:51;;;;;;;43.90;30.58;;;;;;;2.44;100.00;101237.41;5074310;28;20040;-67
2024/01/14 05:14:39;;;;;;;38.47;28.38;;;;;;;2.43;100.00;101231.22;5093315;28;20044;-68
2024/01/14 05:17:27;;;;;;;43.65;29.77;;;;;;;2.41;100.00;101227.91;5073137;28;20090;-67
2024/01/14 05:20:15;;;;;;;39.45;28.50;;;;;;;2.42;100.00;101218.78;5088724;28;20040;-67
2024/01/14 05:23:05;;;;;;;36.28;24.80;;;;;;;2.44;100.00;101208.66;5090955;28;20496;-67
2024/01/14 05:25:53;;;;;;;35.58;26.25;;;;;;;2.39;100.00;101211.13;5064563;28;20051;-68
2024/01/14 05:28:41;;;;;;;33.75;24.27;;;;;;;2.40;100.00;101220.03;5079054;28;20131;-67
2024/01/14 05:31:29;;;;;;;32.00;23.77;;;;;;;2.41;100.00;101216.31;5094281;28;20102;-66
2024/01/14 05:34:17;;;;;;;33.60;24.38;;;;;;;2.37;100.00;101202.44;5078802;28;20043;-67
2024/01/14 05:37:06;;;;;;;31.02;23.00;;;;;;;2.37;100.00;101215.06;5081005;28;20145;-67
2024/01/14 05:39:54;;;;;;;31.92;22.02;;;;;;;2.35;100.00;101208.00;5101552;28;20130;-66
2024/01/14 05:42:45;;;;;;;32.10;23.45;;;;;;;2.31;100.00;101195.22;5095644;28;20055;-66
2024/01/14 05:45:33;;;;;;;32.70;23.77;;;;;;;2.30;100.00;101194.34;5094699;28;20529;-68
2024/01/14 05:48:21;;;;;;;31.88;23.25;;;;;;;2.29;100.00;101192.72;5080922;28;20040;-65
2024/01/14 05:51:11;;;;;;;34.90;25.58;;;;;;;2.31;100.00;101196.03;5087690;28;20103;-66
2024/01/14 05:53:59;;;;;;;31.85;23.40;;;;;;;2.33;100.00;101190.44;5083214;28;20511;-68
2024/01/14 05:56:47;;;;;;;36.70;26.13;;;;;;;2.32;100.00;101186.91;5065055;28;20093;-69
2024/01/14 05:59:35;;;;;;;38.05;26.48;;;;;;;2.32;100.00;101191.47;5074041;28;20404;-66
2024/01/14 06:02:24;;;;;;;36.78;26.73;;;;;;;2.32;100.00;101180.72;5058795;28;20553;-68
2024/01/14 06:05:12;;;;;;;34.03;25.13;;;;;;;2.32;100.00;101183.41;5068798;28;20052;-68
2024/01/14 06:08:00;;;;;;;37.03;26.83;;;;;;;2.30;100.00;101183.59;5048213;28;20078;-68
2024/01/14 06:10:48;;;;;;;35.35;25.42;;;;;;;2.30;100.00;101175.53;5050450;28;20093;-68
2024/01/14 06:13:36;;;;;;;34.25;25.15;;;;;;;2.32;100.00;101180.72;5095841;28;20127;-69
2024/01/14 06:16:25;;;;;;;36.75;27.10;;;;;;;2.33;100.00;101171.63;5096399;28;20048;-69
2024/01/14 06:19:13;;;;;;;34.97;25.60;;;;;;;2.32;100.00;101176.16;5073352;28;20048;-68
2024/01/14 06:22:01;;;;;;;36.47;26.73;;;;;;;2.31;100.00;101179.91;5097036;28;20072;-68
2024/01/14 06:24:49;;;;;;;37.00;26.85;;;;;;;2.30;100.00;101169.34;5082153;28;20048;-67
2024/01/14 06:27:37;;;;;;;37.95;27.55;;;;;;;2.33;100.00;101171.63;5096976;28;20122;-68
2024/01/14 06:30:25;;;;;;;41.85;28.85;;;;;;;2.33;100.00;101167.09;5081759;28;20055;-66
2024/01/14 06:33:13;;;;;;;35.70;25.35;;;;;;;2.32;100.00;101165.41;5096465;28;20405;-67
2024/01/14 06:36:08;;;;;;;38.75;27.75;;;;;;;2.31;100.00;101157.56;5095033;28;20177;-68
2024/01/14 06:38:56;;;;;;;39.15;28.33;;;;;;;2.32;100.00;101169.97;5091655;28;20128;-69
2024/01/14 06:41:44;;;;;;;39.53;27.98;;;;;;;2.30;100.00;101163.97;5093452;28;20055;-69
2024/01/14 06:44:37;;;;;;;43.53;28.52;;;;;;;2.25;100.00;101153.81;5080939;28;20102;-66
2024/01/14 06:47:25;;;;;;;42.00;29.38;;;;;;;2.26;100.00;101149.25;5096032;28;20048;-71
2024/01/14 06:50:13;;;;;;;40.90;29.27;;;;;;;2.25;100.00;101145.75;5082307;28;20040;-67
2024/01/14 06:53:03;;;;;;;40.35;28.63;;;;;;;2.26;100.00;101136.69;5081586;28;20082;-68
2024/01/14 06:55:51;;;;;;;37.88;26.42;;;;;;;2.27;100.00;101127.56;5096208;28;20119;-67
2024/01/14 06:58:39;;;;;;;42.00;28.77;;;;;;;2.28;100.00;101133.75;5079612;28;20044;-69
2024/01/14 07:01:27;;;;;;;39.13;28.48;;;;;;;2.28;100.00;101134.59;5095360;28;20036;-69
2024/01/14 07:04:15;;;;;;;39.58;27.83;;;;;;;2.26;100.00;101131.28;5096396;28;20503;-68
2024/01/14 07:07:04;;;;;;;39.13;27.98;;;;;;;2.28;100.00;101131.06;5095358;28;20047;-68
2024/01/14 07:09:52;;;;;;;39.15;28.20;;;;;;;2.28;100.00;101131.06;5077942;28;20074;-68
2024/01/14 07:12:40;;;;;;;43.20;29.88;;;;;;;2.29;100.00;101116.63;5095137;28;20044;-68
2024/01/14 07:15:28;;;;;;;43.40;28.75;;;;;;;2.29;100.00;101119.31;5095606;28;20123;-69
2024/01/14 07:18:16;;;;;;;43.13;29.48;;;;;;;2.26;100.00;101117.00;5095669;28;20052;-70
2024/01/14 07:21:07;;;;;;;41.88;28.83;;;;;;;2.25;100.00;101123.44;5077048;28;20504;-68
2024/01/14 07:23:55;;;;;;;36.95;26.27;;;;;;;2.25;100.00;101121.56;5079193;28;20055;-67
2024/01/14 07:26:43;;;;;;;37.30;27.58;;;;;;;2.25;100.00;101131.50;5095994;28;20051;-67
2024/01/14 07:29:32;;;;;;;39.15;28.60;;;;;;;2.24;100.00;101133.34;5095787;28;20491;-67
2024/01/14 07:32:20;;;;;;;38.80;27.65;;;;;;;2.25;100.00;101131.50;5076614;28;20101;-68
2024/01/14 07:35:08;;;;;;;38.28;27.10;;;;;;;2.26;100.00;101138.50;5080339;28;20173;-69
2024/01/14 07:37:56;;;;;;;35.55;25.90;;;;;;;2.27;100.00;101129.44;5080349;28;20123;-70
2024/01/14 07:40:44;;;;;;;36.10;25.65;;;;;;;2.26;100.00;101127.75;5092842;28;20050;-70
2024/01/14 07:43:32;;;;;;;41.03;29.40;;;;;;;2.25;100.00;101131.50;5095481;28;20229;-71
2024/01/14 07:46:20;;;;;;;39.20;28.55;;;;;;;2.24;100.00;101138.72;5080396;28;20047;-67
2024/01/14 07:49:08;;;;;;;34.83;25.20;;;;;;;2.25;100.00;101126.13;5093516;28;20059;-67
2024/01/14 07:51:57;;;;;;;36.50;25.50;;;;;;;2.21;100.00;101130.25;5094506;28;20036;-67
2024/01/14 07:54:45;;;;;;;38.95;28.23;;;;;;;2.22;100.00;101127.34;5066167;28;20457;-69
2024/01/14 07:57:34;;;;;;;39.47;27.55;;;;;;;2.23;100.00;101123.63;5094849;28;20058;-70
2024/01/14 08:00:22;;;;;;;35.85;25.90;;;;;;;2.27;100.00;101130.25;5094259;28;20121;-68
2024/01/14 08:03:10;;;;;;;32.95;23.45;;;;;;;2.28;100.00;101121.13;5092599;28;20044;-71
2024/01/14 08:05:58;;;;;;;35.25;26.20;;;;;;;2.26;100.00;101119.69;5052387;28;20052;-69
2024/01/14 08:08:46;;;;;;;37.47;25.83;;;;;;;2.23;100.00;101122.78;5092624;28;20419;-67
2024/01/14 08:11:34;;;;;;;40.90;28.35;;;;;;;2.22;100.00;101126.53;5083262;28;20136;-67
2024/01/14 08:14:23;;;;;;;40.28;28.30;;;;;;;2.19;100.00;101117.03;5095908;28;20048;-70
2024/01/14 08:17:11;;;;;;;43.40;28.13;;;;;;;2.19;100.00;101116.16;5093860;28;20601;-68
2024/01/14 08:19:59;;;;;;;37.50;27.17;;;;;;;2.15;100.00;101118.47;5094931;28;20048;-70
2024/01/14 08:22:48;;;;;;;40.17;28.48;;;;;;;2.13;100.00;101115.97;5091786;28;20047;-69
2024/01/14 08:25:36;;;;;;;40.85;28.40;;;;;;;2.11;100.00;101120.72;5079771;28;20048;-67
2024/01/14 08:28:24;;;;;;;43.67;29.50;;;;;;;2.11;100.00;101118.03;5093626;28;20132;-66
2024/01/14 08:31:12;;;;;;;42.65;28.27;;;;;;;2.12;100.00;101117.00;5093497;28;20124;-69
2024/01/14 08:34:02;;;;;;;40.40;29.17;;;;;;;2.18;100.00;101119.91;5090111;28;20063;-67
2024/01/14 08:36:50;;;;;;;40.45;27.85;;;;;;;2.18;100.00;101120.72;5073237;28;20049;-67
2024/01/14 08:39:38;;;;;;;40.67;29.50;;;;;;;2.18;100.00;101114.53;5074642;28;20055;-67
2024/01/14 08:42:26;;;;;;;39.95;27.98;;;;;;;2.16;100.00;101105.84;5059083;28;20056;-66
2024/01/14 08:45:16;;;;;;;37.80;27.60;;;;;;;2.15;100.00;101105.00;5067439;28;20519;-67
2024/01/14 08:48:06;;;;;;;39.08;27.85;;;;;;;2.17;100.00;101102.94;5078788;28;20052;-67
2024/01/14 08:50:56;;;;;;;40.28;28.40;;;;;;;2.16;100.00;101095.09;5066170;28;20503;-67
2024/01/14 08:53:44;;;;;;;42.30;29.50;;;;;;;2.17;100.00;101094.88;5093117;28;20062;-67
2024/01/14 08:56:32;;;;;;;38.20;27.23;;;;;;;2.19;100.00;101087.44;5092260;28;20043;-66
2024/01/14 08:59:20;;;;;;;37.85;27.25;;;;;;;2.21;100.00;101097.97;5079020;28;20040;-67
2024/01/14 09:02:08;;;;;;;36.33;25.38;;;;;;;2.20;100.00;101096.34;5093341;28;20502;-66
2024/01/14 09:04:56;;;;;;;36.67;27.38;;;;;;;2.21;100.00;101097.97;5093426;28;20418;-67
2024/01/14 09:07:44;;;;;;;38.17;26.02;;;;;;;2.20;100.00;101097.16;5091987;28;20051;-68
2024/01/14 09:10:33;;;;;;;36.05;26.38;;;;;;;2.22;100.00;101094.28;5093362;28;20598;-66
2024/01/14 09:13:21;;;;;;;33.20;24.50;;;;;;;2.25;100.00;101096.53;5049938;28;20055;-67
2024/01/14 09:16:09;;;;;;;37.55;27.92;;;;;;;2.24;100.00;101097.59;5077952;28;20054;-67
2024/01/14 09:18:57;;;;;;;37.75;26.65;;;;;;;2.24;100.00;101087.66;5079851;28;20508;-65
2024/01/14 09:21:45;;;;;;;37.22;25.95;;;;;;;2.24;100.00;101093.03;5078453;28;20063;-68
2024/01/14 09:24:33;;;;;;;38.70;27.27;;;;;;;2.24;100.00;101098.41;5077829;28;20048;-66
2024/01/14 09:27:21;;;;;;;36.33;26.20;;;;;;;2.23;100.00;101101.28;5087654;28;20408;-67
2024/01/14 09:30:12;;;;;;;41.70;28.90;;;;;;;2.26;100.00;101092.81;5091926;28;20512;-66
2024/01/14 09:33:00;;;;;;;37.40;26.73;;;;;;;2.24;100.00;101089.53;5091221;28;20070;-67
2024/01/14 09:35:48;;;;;;;39.15;26.85;;;;;;;2.25;100.00;101083.09;5094176;28;20142;-66
2024/01/14 09:38:37;;;;;;;40.42;28.42;;;;;;;2.32;100.00;101081.25;5073536;28;20051;-66
2024/01/14 09:41:47;;;;;;;44.13;30.30;;;;;;;2.33;100.00;101081.03;5058869;28;20040;-67
2024/01/14 09:44:35;;;;;;;40.95;28.98;;;;;;;2.36;100.00;101074.44;5059088;28;20044;-66
2024/01/14 09:47:23;;;;;;;43.33;29.10;;;;;;;2.35;100.00;101072.75;5075734;28;20470;-66
2024/01/14 09:50:11;;;;;;;41.30;29.75;;;;;;;2.31;100.00;101063.47;5051188;28;20044;-66
2024/01/14 09:53:01;;;;;;;41.22;28.75;;;;;;;2.31;100.00;101066.16;5077872;28;20073;-65
2024/01/14 09:55:50;;;;;;;44.88;30.77;;;;;;;2.29;100.00;101057.47;5063977;28;20126;-66
2024/01/14 09:58:40;;;;;;;44.05;30.42;;;;;;;2.27;100.00;101062.22;5091726;28;20145;-66
2024/01/14 10:01:33;;;;;;;42.78;29.38;;;;;;;2.29;100.00;101063.66;5092922;28;20087;-66
2024/01/14 10:04:21;;;;;;;40.38;27.90;;;;;;;2.31;100.00;101064.28;5092902;28;20040;-67
2024/01/14 10:07:10;;;;;;;39.92;27.23;;;;;;;2.27;100.00;101056.84;5099533;28;20055;-66
2024/01/14 10:09:58;;;;;;;42.45;29.27;;;;;;;2.25;100.00;101054.34;5085613;28;20050;-65
2024/01/14 10:12:47;;;;;;;43.60;29.52;;;;;;;2.25;100.00;101058.91;5080016;28;20048;-66
2024/01/14 10:15:35;;;;;;;44.28;30.75;;;;;;;2.24;100.00;101054.56;5084072;28;20044;-66
2024/01/14 10:18:38;;;;;;;40.95;28.52;;;;;;;2.29;100.00;101054.78;5074714;28;20046;-65
2024/01/14 10:21:27;;;;;;;43.95;29.00;;;;;;;2.31;100.00;101047.34;5081472;28;20050;-66
2024/01/14 10:24:15;;;;;;;40.80;28.63;;;;;;;2.32;100.00;101035.53;5065270;28;20042;-65
2024/01/14 10:27:05;;;;;;;40.67;29.00;;;;;;;2.36;100.00;101034.09;5082987;28;20052;-65
2024/01/14 10:29:53;;;;;;;42.25;28.27;;;;;;;2.39;100.00;101030.16;5078903;28;20051;-66
2024/01/14 10:32:41;;;;;;;42.25;29.67;;;;;;;2.38;100.00;101023.94;5092188;28;20048;-66
2024/01/14 10:35:49;;;;;;;39.03;27.65;;;;;;;2.39;100.00;101017.53;5092786;28;20056;-67
2024/01/14 10:38:37;;;;;;;41.67;29.33;;;;;;;2.38;100.00;101020.41;5078014;28;20055;-66
2024/01/14 10:41:25;;;;;;;39.13;28.20;;;;;;;2.37;100.00;101021.47;5050187;28;20051;-66
2024/01/14 10:44:15;;;;;;;37.90;27.40;;;;;;;2.40;100.00;101011.09;5092368;28;20568;-67
2024/01/14 10:47:04;;;;;;;41.22;28.73;;;;;;;2.40;100.00;101005.72;5064015;28;20467;-66
2024/01/14 10:49:52;;;;;;;39.53;28.00;;;;;;;2.43;100.00;100999.09;5078034;28;20492;-67
2024/01/14 10:52:45;;;;;;;36.60;25.33;;;;;;;2.45;100.00;100995.16;5063838;28;20059;-66
2024/01/14 10:55:42;;;;;;;39.25;26.52;;;;;;;2.40;100.00;100988.78;5091930;28;20127;-66
2024/01/14 10:58:35;;;;;;;35.70;26.83;;;;;;;2.39;100.00;100989.81;5090562;28;20044;-67
2024/01/14 11:01:24;;;;;;;40.78;27.80;;;;;;;2.36;100.00;100996.44;5082462;28;20105;-66
2024/01/14 11:04:12;;;;;;;36.70;26.17;;;;;;;2.38;100.00;100991.66;5096287;28;20047;-67
2024/01/14 11:07:00;;;;;;;33.28;24.58;;;;;;;2.37;100.00;100984.63;5081379;28;20055;-64
2024/01/14 11:09:50;;;;;;;35.88;24.10;;;;;;;2.41;100.00;100975.13;5040503;28;20177;-67
2024/01/14 11:12:44;;;;;;;34.53;23.80;;;;;;;2.35;100.00;100973.25;5094679;28;20538;-67
2024/01/14 11:15:57;;;;;;;31.95;22.67;;;;;;;2.37;100.00;100956.94;5095605;28;20043;-67
2024/01/14 11:18:58;;;;;;;33.40;23.20;;;;;;;2.37;100.00;100955.06;5073209;28;20416;-66
2024/01/14 11:22:08;;;;;;;33.83;24.95;;;;;;;2.43;100.00;100950.69;5068013;28;20564;-68
2024/01/14 11:25:16;;;;;;;31.05;17.98;;;;;;;2.48;100.00;100938.28;5082758;28;20534;-66
2024/01/14 11:28:05;;;;;;;32.83;22.05;;;;;;;2.42;100.00;100933.75;5094949;28;20048;-66
2024/01/14 11:30:55;;;;;;;32.35;23.20;;;;;;;2.39;100.00;100925.28;5094471;28;20131;-67
2024/01/14 11:33:48;;;;;;;32.00;23.55;;;;;;;2.39;100.00;100923.41;5093781;28;20048;-67
2024/01/14 11:36:55;;;;;;;31.30;22.60;;;;;;;2.34;100.00;100915.97;5095011;28;20044;-67
2024/01/14 11:39:43;;;;;;;31.58;22.42;;;;;;;2.40;100.00;100913.47;5087041;28;20051;-65
2024/01/14 11:42:32;;;;;;;28.98;21.60;;;;;;;2.42;100.00;100898.78;5060220;28;20096;-66
2024/01/14 11:45:23;;;;;;;29.80;21.60;;;;;;;2.39;100.00;100896.53;5076712;28;20052;-67
2024/01/14 11:48:12;;;;;;;30.17;21.67;;;;;;;2.39;100.00;100893.84;5074754;28;20045;-66
2024/01/14 11:51:00;;;;;;;29.85;19.45;;;;;;;2.45;100.00;100892.16;5060631;28;20056;-66
2024/01/14 11:53:48;;;;;;;29.90;21.13;;;;;;;2.42;100.00;100879.97;5073046;28;20465;-66
2024/01/14 11:56:39;;;;;;;29.02;20.98;;;;;;;2.45;100.00;100873.34;5075389;28;20127;-64
2024/01/14 11:59:27;;;;;;;34.58;22.73;;;;;;;2.47;100.00;100871.25;5064520;28;20464;-66
2024/01/14 12:02:29;;;;;;;34.95;24.00;;;;;;;2.41;100.00;100867.56;5021131;28;20128;-67
2024/01/14 12:05:20;;;;;;;27.52;17.98;;;;;;;2.39;100.00;100858.06;5031531;28;20060;-68
2024/01/14 12:08:09;;;;;;;32.15;22.52;;;;;;;2.40;100.00;100849.78;5022789;28;20417;-67
2024/01/14 12:11:03;;;;;;;34.72;22.08;;;;;;;2.39;100.00;100853.50;5048599;28;20127;-67
2024/01/14 12:13:51;;;;;;;33.10;23.65;;;;;;;2.35;100.00;100850.41;5008272;28;20533;-67
2024/01/14 12:16:39;;;;;;;31.33;21.40;;;;;;;2.37;100.00;100854.75;5006914;28;20045;-66
2024/01/14 12:19:27;;;;;;;33.42;23.58;;;;;;;2.37;100.00;100844.81;5030789;28;20052;-68
2024/01/14 12:22:16;;;;;;;29.60;22.25;;;;;;;2.41;100.00;100840.69;5052916;28;20481;-67
2024/01/14 12:25:04;;;;;;;29.90;20.85;;;;;;;2.34;100.00;100845.25;5039101;28;20037;-67
2024/01/14 12:27:52;;;;;;;36.40;25.63;;;;;;;2.33;100.00;100833.69;5014563;28;20049;-67
2024/01/14 12:30:40;;;;;;;34.58;24.42;;;;;;;2.33;100.00;100828.31;5020187;28;20050;-67
2024/01/14 12:33:28;;;;;;;34.42;24.90;;;;;;;2.33;100.00;100822.09;5047720;28;20131;-69
2024/01/14 12:36:16;;;;;;;40.13;28.00;;;;;;;2.32;100.00;100818.56;5036465;28;20044;-68
2024/01/14 12:39:05;;;;;;;39.30;28.05;;;;;;;2.27;100.00;100823.78;5037274;28;20462;-67
2024/01/14 12:41:53;;;;;;;40.20;28.27;;;;;;;2.23;100.00;100805.59;5060885;28;20438;-67
2024/01/14 12:44:43;;;;;;;39.08;29.83;;;;;;;2.18;100.00;100802.72;5080749;28;20043;-66
2024/01/14 12:47:32;;;;;;;39.97;27.70;;;;;;;2.17;100.00;100795.72;5080130;28;20408;-68